createdAt,value
2023-05-12T00:01:03.530Z,11.57
2023-05-12T00:03:30.003Z,11.55
2023-05-12T00:05:56.511Z,11.52
2023-05-12T00:08:22.823Z,11.55
2023-05-12T00:10:49.168Z,11.55
2023-05-12T00:13:15.581Z,11.54
2023-05-12T00:15:42.019Z,11.56
2023-05-12T00:18:08.380Z,11.58
2023-05-12T00:20:34.729Z,11.59
2023-05-12T00:23:01.125Z,11.63
2023-05-12T00:25:27.453Z,11.63
2023-05-12T00:27:53.814Z,11.58
2023-05-12T00:30:21.244Z,11.57
2023-05-12T00:32:47.852Z,11.59
2023-05-12T00:35:14.157Z,11.64
2023-05-12T00:37:40.477Z,11.57
2023-05-12T00:40:07.572Z,11.55
2023-05-12T00:42:35.348Z,11.54
2023-05-12T00:45:02.252Z,11.54
2023-05-12T00:47:28.820Z,11.53
2023-05-12T00:49:55.463Z,11.58
2023-05-12T00:52:21.954Z,11.56
2023-05-12T00:54:48.693Z,11.55
2023-05-12T00:57:15.259Z,11.56
2023-05-12T00:59:41.544Z,11.63
2023-05-12T01:02:08.654Z,11.64
2023-05-12T01:04:36.009Z,11.60
2023-05-12T01:07:25.124Z,11.66
2023-05-12T01:09:58.131Z,11.63
2023-05-12T01:12:25.558Z,11.61
2023-05-12T01:14:53.857Z,11.62
2023-05-12T01:17:29.385Z,11.62
2023-05-12T01:20:01.632Z,11.61
2023-05-12T01:22:33.518Z,11.61
2023-05-12T01:25:03.625Z,11.58
2023-05-12T01:27:30.967Z,11.58
2023-05-12T01:30:02.816Z,11.53
2023-05-12T01:32:30.399Z,11.54
2023-05-12T01:34:56.788Z,11.53
2023-05-12T01:37:26.518Z,11.52
2023-05-12T01:39:53.961Z,11.52
2023-05-12T01:42:20.628Z,11.52
2023-05-12T01:44:46.975Z,11.55
2023-05-12T01:47:15.573Z,11.52
2023-05-12T01:49:41.890Z,11.50
2023-05-12T01:52:08.377Z,11.47
2023-05-12T01:54:34.739Z,11.51
2023-05-12T01:57:01.046Z,11.50
2023-05-12T01:59:27.435Z,11.45
2023-05-12T02:01:53.873Z,11.45
2023-05-12T02:04:20.180Z,11.42
2023-05-12T02:06:46.508Z,11.44
2023-05-12T02:09:13.177Z,11.42
2023-05-12T02:11:39.656Z,11.40
2023-05-12T02:14:06.679Z,11.38
2023-05-12T02:16:33.080Z,11.36
2023-05-12T02:18:59.494Z,11.35
2023-05-12T02:21:26.234Z,11.33
2023-05-12T02:23:52.583Z,11.32
2023-05-12T02:26:19.421Z,11.33
2023-05-12T02:28:45.890Z,11.34
2023-05-12T02:31:12.208Z,11.34
2023-05-12T02:33:38.642Z,11.34
2023-05-12T02:36:05.420Z,11.33
2023-05-12T02:38:31.686Z,11.33
2023-05-12T02:40:58.295Z,11.35
2023-05-12T02:43:24.608Z,11.34
2023-05-12T02:45:51.774Z,11.35
2023-05-12T02:48:18.131Z,11.44
2023-05-12T02:50:44.426Z,11.50
2023-05-12T02:53:10.740Z,11.53
2023-05-12T02:55:37.150Z,11.58
2023-05-12T02:58:03.551Z,11.76
2023-05-12T03:00:29.848Z,11.76
2023-05-12T03:02:56.242Z,11.81
2023-05-12T03:05:22.851Z,11.77
2023-05-12T03:07:52.021Z,11.76
2023-05-12T03:10:19.192Z,11.74
2023-05-12T03:12:45.811Z,11.73
2023-05-12T03:15:12.233Z,11.74
2023-05-12T03:17:38.738Z,11.76
2023-05-12T03:20:05.917Z,11.80
2023-05-12T03:22:32.495Z,11.83
2023-05-12T03:24:58.921Z,11.83
2023-05-12T03:27:25.348Z,11.82
2023-05-12T03:29:51.922Z,11.77
2023-05-12T03:32:18.357Z,11.76
2023-05-12T03:34:44.778Z,11.77
2023-05-12T03:37:11.070Z,11.77
2023-05-12T03:39:37.403Z,11.84
2023-05-12T03:42:03.929Z,11.84
2023-05-12T03:44:30.294Z,11.81
2023-05-12T03:46:56.737Z,11.80
2023-05-12T03:49:23.151Z,11.87
2023-05-12T03:51:49.454Z,11.82
2023-05-12T03:54:15.796Z,11.84
2023-05-12T03:56:42.200Z,11.85
2023-05-12T03:59:08.552Z,11.87
2023-05-12T04:01:35.607Z,11.87
2023-05-12T04:04:02.013Z,11.86
2023-05-12T04:06:28.361Z,11.85
2023-05-12T04:08:54.763Z,11.82
2023-05-12T04:11:21.170Z,11.86
2023-05-12T04:13:47.578Z,11.90
2023-05-12T04:16:14.116Z,11.93
2023-05-12T04:18:40.580Z,11.92
2023-05-12T04:21:06.975Z,11.92
2023-05-12T04:23:33.465Z,11.97
2023-05-12T04:25:59.772Z,12.02
2023-05-12T04:28:26.206Z,11.99
2023-05-12T04:30:52.489Z,11.87
2023-05-12T04:33:19.045Z,11.84
2023-05-12T04:35:45.570Z,11.77
2023-05-12T04:38:12.072Z,11.70
2023-05-12T04:40:38.401Z,11.67
2023-05-12T04:43:04.820Z,11.69
2023-05-12T04:45:31.250Z,11.64
2023-05-12T04:47:57.666Z,11.63
2023-05-12T04:50:23.982Z,11.70
2023-05-12T04:52:50.433Z,11.74
2023-05-12T04:55:16.963Z,11.76
2023-05-12T04:57:43.284Z,11.86
2023-05-12T05:00:10.235Z,11.88
2023-05-12T05:02:36.740Z,11.91
2023-05-12T05:05:03.273Z,12.01
2023-05-12T05:07:29.757Z,12.01
2023-05-12T05:09:56.222Z,12.03
2023-05-12T05:12:22.672Z,12.03
2023-05-12T05:14:49.153Z,12.06
2023-05-12T05:17:15.639Z,12.12
2023-05-12T05:19:55.196Z,12.19
2023-05-12T05:22:25.330Z,12.21
2023-05-12T05:24:51.782Z,12.31
2023-05-12T05:27:18.259Z,12.40
2023-05-12T05:29:44.581Z,12.62
2023-05-12T05:32:10.921Z,12.88
2023-05-12T05:34:37.612Z,13.02
2023-05-12T05:37:04.070Z,13.16
2023-05-12T05:39:30.835Z,13.32
2023-05-12T05:41:57.944Z,13.47
2023-05-12T05:44:25.009Z,13.62
2023-05-12T05:46:51.461Z,13.70
2023-05-12T05:49:17.850Z,13.82
2023-05-12T05:51:44.138Z,13.93
2023-05-12T05:54:10.577Z,13.83
2023-05-12T05:56:37.059Z,13.86
2023-05-12T05:59:04.588Z,13.72
2023-05-12T06:01:31.529Z,13.59
2023-05-12T06:03:57.968Z,13.47
2023-05-12T06:06:24.388Z,13.48
2023-05-12T06:08:50.804Z,13.40
2023-05-12T06:11:17.937Z,13.41
2023-05-12T06:13:44.450Z,13.39
2023-05-12T06:16:10.862Z,13.50
2023-05-12T06:18:38.179Z,13.45
2023-05-12T06:21:06.148Z,13.48
2023-05-12T06:23:32.569Z,13.51
2023-05-12T06:25:59.046Z,13.52
2023-05-12T06:28:25.368Z,13.49
2023-05-12T06:30:51.699Z,13.53
2023-05-12T06:33:18.170Z,13.64
2023-05-12T06:35:44.530Z,13.64
2023-05-12T06:38:11.711Z,13.69
2023-05-12T06:40:38.259Z,13.56
2023-05-12T06:43:04.659Z,13.62
2023-05-12T06:45:31.085Z,13.64
2023-05-12T06:47:57.705Z,13.56
2023-05-12T06:50:24.095Z,13.56
2023-05-12T06:52:51.018Z,13.61
2023-05-12T06:55:19.852Z,13.59
2023-05-12T06:57:46.588Z,13.61
2023-05-12T07:00:13.858Z,13.57
2023-05-12T07:02:40.319Z,13.64
2023-05-12T07:05:07.019Z,13.64
2023-05-12T07:07:33.381Z,13.82
2023-05-12T07:10:02.125Z,13.97
2023-05-12T07:12:28.414Z,13.96
2023-05-12T07:14:54.706Z,14.05
2023-05-12T07:17:23.562Z,14.01
2023-05-12T07:19:49.958Z,14.35
2023-05-12T07:22:16.336Z,14.56
2023-05-12T07:24:43.214Z,14.87
2023-05-12T07:27:09.547Z,15.15
2023-05-12T07:29:35.878Z,15.71
2023-05-12T07:32:02.332Z,15.86
2023-05-12T07:34:28.790Z,16.03
2023-05-12T07:36:55.473Z,16.26
2023-05-12T07:39:23.651Z,16.25
2023-05-12T07:41:50.939Z,16.34
2023-05-12T07:44:17.334Z,16.42
2023-05-12T07:46:43.894Z,16.52
2023-05-12T07:49:10.301Z,16.51
2023-05-12T07:51:36.875Z,16.26
2023-05-12T07:54:03.313Z,16.01
2023-05-12T07:56:29.679Z,15.97
2023-05-12T07:58:56.160Z,15.88
2023-05-12T08:01:22.669Z,15.87
2023-05-12T08:03:51.162Z,15.70
2023-05-12T08:06:18.464Z,15.53
2023-05-12T08:08:45.033Z,15.44
2023-05-12T08:11:12.521Z,15.46
2023-05-12T08:13:38.908Z,15.41
2023-05-12T08:16:05.478Z,15.44
2023-05-12T08:18:31.883Z,15.42
2023-05-12T08:20:58.229Z,15.43
2023-05-12T08:23:24.578Z,15.42
2023-05-12T08:25:50.884Z,15.46
2023-05-12T08:28:17.216Z,15.58
2023-05-12T08:30:45.032Z,15.64
2023-05-12T08:33:12.251Z,15.53
2023-05-12T08:35:38.634Z,15.45
2023-05-12T08:38:05.780Z,15.42
2023-05-12T08:40:41.702Z,15.31
2023-05-12T08:43:37.884Z,15.36
2023-05-12T08:46:05.256Z,15.39
2023-05-12T08:48:34.393Z,15.35
2023-05-12T08:51:02.753Z,15.45
2023-05-12T08:53:29.473Z,15.79
2023-05-12T08:57:09.596Z,16.03
2023-05-12T08:58:45.444Z,16.42
2023-05-12T09:01:12.492Z,16.90
2023-05-12T09:03:39.322Z,17.43
2023-05-12T09:06:06.694Z,17.54
2023-05-12T09:08:34.618Z,17.80
2023-05-12T09:11:01.762Z,17.95
2023-05-12T09:13:48.125Z,18.03
2023-05-12T09:16:18.237Z,18.30
2023-05-12T09:18:50.758Z,18.47
2023-05-12T09:21:17.298Z,18.69
2023-05-12T09:24:06.302Z,19.20
2023-05-12T09:26:50.302Z,19.66
2023-05-12T09:29:27.689Z,19.24
2023-05-12T09:31:58.574Z,19.62
2023-05-12T09:34:30.303Z,19.89
2023-05-12T09:37:01.474Z,19.76
2023-05-12T09:39:28.823Z,19.91
2023-05-12T09:41:55.830Z,20.07
2023-05-12T09:44:23.939Z,19.78
2023-05-12T09:46:51.224Z,20.06
2023-05-12T09:49:28.725Z,20.39
2023-05-12T09:51:58.952Z,20.41
2023-05-12T09:54:29.359Z,20.34
2023-05-12T09:57:04.765Z,20.12
2023-05-12T09:59:33.558Z,19.57
2023-05-12T10:02:03.831Z,19.32
2023-05-12T10:04:39.135Z,18.53
2023-05-12T10:07:09.687Z,18.36
2023-05-12T10:09:39.290Z,18.14
2023-05-12T10:12:06.333Z,17.73
2023-05-12T10:14:33.718Z,17.73
2023-05-12T10:17:00.922Z,17.62
2023-05-12T10:19:29.996Z,17.76
2023-05-12T10:22:00.482Z,17.91
2023-05-12T10:24:27.496Z,17.88
2023-05-12T10:26:57.471Z,17.72
2023-05-12T10:29:30.096Z,17.65
2023-05-12T10:31:57.644Z,17.52
2023-05-12T10:34:30.121Z,17.33
2023-05-12T10:36:58.423Z,17.30
2023-05-12T10:39:29.616Z,17.32
2023-05-12T10:42:06.081Z,17.30
2023-05-12T10:44:32.538Z,17.07
2023-05-12T10:47:02.079Z,17.06
2023-05-12T10:49:39.296Z,17.06
2023-05-12T10:52:05.988Z,16.85
2023-05-12T10:54:40.947Z,16.68
2023-05-12T10:57:16.046Z,16.48
2023-05-12T10:59:52.874Z,16.33
2023-05-12T11:02:26.239Z,16.16
2023-05-12T11:05:01.677Z,16.02
2023-05-12T11:07:30.973Z,15.91
2023-05-12T11:10:02.011Z,15.81
2023-05-12T11:12:35.263Z,15.74
2023-05-12T11:15:03.532Z,15.76
2023-05-12T11:17:30.050Z,15.90
2023-05-12T11:19:56.739Z,16.26
2023-05-12T11:22:23.903Z,16.86
2023-05-12T11:24:52.383Z,17.54
2023-05-12T11:27:21.173Z,18.10
2023-05-12T11:29:58.777Z,18.45
2023-05-12T11:32:25.178Z,18.59
2023-05-12T11:34:51.526Z,18.56
2023-05-12T11:37:20.824Z,18.48
2023-05-12T11:39:47.255Z,18.15
2023-05-12T11:42:14.710Z,17.64
2023-05-12T11:44:49.516Z,17.27
2023-05-12T11:47:17.276Z,16.94
2023-05-12T11:49:49.147Z,16.58
2023-05-12T11:52:16.251Z,16.24
2023-05-12T11:54:52.424Z,15.37
2023-05-12T11:57:30.202Z,14.78
2023-05-12T12:00:04.691Z,14.53
2023-05-12T12:02:31.479Z,14.24
2023-05-12T12:04:58.089Z,14.00
2023-05-12T12:07:32.154Z,13.80
2023-05-12T12:09:59.170Z,13.86
2023-05-12T12:12:25.625Z,14.25
2023-05-12T12:14:51.975Z,14.68
2023-05-12T12:17:18.345Z,15.19
2023-05-12T12:19:44.645Z,15.61
2023-05-12T12:22:11.596Z,16.12
2023-05-12T12:24:37.980Z,16.38
2023-05-12T12:27:05.384Z,16.56
2023-05-12T12:29:31.699Z,16.57
2023-05-12T12:31:58.133Z,16.46
2023-05-12T12:34:24.434Z,16.20
2023-05-12T12:36:51.619Z,16.32
2023-05-12T12:39:19.824Z,16.49
2023-05-12T12:41:48.055Z,16.68
2023-05-12T12:44:14.637Z,16.63
2023-05-12T12:46:41.099Z,16.67
2023-05-12T12:49:07.505Z,16.57
2023-05-12T12:51:45.067Z,16.62
2023-05-12T12:54:13.094Z,16.28
2023-05-12T12:56:39.439Z,16.15
2023-05-12T12:59:06.222Z,16.13
2023-05-12T13:01:33.779Z,16.29
2023-05-12T13:04:00.305Z,16.58
2023-05-12T13:06:27.491Z,16.81
2023-05-12T13:08:53.794Z,17.11
2023-05-12T13:11:20.100Z,17.01
2023-05-12T13:13:46.513Z,16.88
2023-05-12T13:16:12.981Z,16.63
2023-05-12T13:18:39.497Z,16.47
2023-05-12T13:21:06.062Z,16.13
2023-05-12T13:23:32.451Z,15.89
2023-05-12T13:25:58.945Z,15.68
2023-05-12T13:28:25.364Z,15.60
2023-05-12T13:30:52.553Z,15.66
2023-05-12T13:33:19.005Z,15.71
2023-05-12T13:35:45.412Z,15.78
2023-05-12T13:38:11.847Z,15.89
2023-05-12T13:40:38.330Z,16.06
2023-05-12T13:43:05.214Z,16.37
2023-05-12T13:45:31.569Z,16.70
2023-05-12T13:47:58.008Z,16.97
2023-05-12T13:50:24.433Z,17.14
2023-05-12T13:52:50.772Z,17.34
2023-05-12T13:55:21.359Z,17.37
2023-05-12T13:57:48.200Z,17.36
2023-05-12T14:00:16.991Z,17.41
2023-05-12T14:02:43.636Z,17.29
2023-05-12T14:05:10.138Z,17.23
2023-05-12T14:07:36.491Z,17.23
2023-05-12T14:10:03.091Z,17.38
2023-05-12T14:12:29.462Z,17.50
2023-05-12T14:15:04.485Z,17.61
2023-05-12T14:17:38.488Z,17.63
2023-05-12T14:20:06.390Z,17.51
2023-05-12T14:22:33.460Z,17.52
2023-05-12T14:25:00.380Z,17.51
2023-05-12T14:27:26.736Z,17.30
2023-05-12T14:29:53.070Z,17.37
2023-05-12T14:32:19.485Z,17.28
2023-05-12T14:34:46.007Z,17.34
2023-05-12T14:37:12.455Z,17.45
2023-05-12T14:39:38.841Z,17.66
2023-05-12T14:42:05.422Z,17.85
2023-05-12T14:44:32.192Z,18.10
2023-05-12T14:46:58.509Z,18.41
2023-05-12T14:49:24.865Z,18.76
2023-05-12T14:51:51.170Z,19.04
2023-05-12T14:54:25.311Z,19.21
2023-05-12T14:56:52.498Z,19.25
2023-05-12T14:59:18.906Z,19.41
2023-05-12T15:01:45.310Z,19.64
2023-05-12T15:04:11.908Z,19.55
2023-05-12T15:06:38.206Z,19.94
2023-05-12T15:09:04.766Z,20.16
2023-05-12T15:11:31.139Z,20.47
2023-05-12T15:13:57.492Z,20.89
2023-05-12T15:16:26.054Z,21.20
2023-05-12T15:18:52.455Z,21.72
2023-05-12T15:21:18.808Z,22.06
2023-05-12T15:23:45.177Z,22.27
2023-05-12T15:28:40.824Z,22.32
2023-05-12T15:31:07.304Z,22.28
2023-05-12T15:33:33.882Z,22.04
2023-05-12T15:36:00.702Z,21.41
2023-05-12T15:38:27.181Z,20.94
2023-05-12T15:40:53.530Z,20.52
2023-05-12T15:43:19.966Z,20.51
2023-05-12T15:45:46.537Z,20.74
2023-05-12T15:48:12.874Z,20.96
2023-05-12T15:50:39.204Z,21.04
2023-05-12T15:53:06.795Z,21.52
2023-05-12T15:55:33.354Z,21.84
2023-05-12T15:57:59.907Z,21.82
2023-05-12T16:00:26.422Z,21.69
2023-05-12T16:02:53.395Z,21.55
2023-05-12T16:05:20.175Z,21.49
2023-05-12T16:07:47.853Z,21.15
2023-05-12T16:10:14.154Z,20.95
2023-05-12T16:12:40.541Z,20.65
2023-05-12T16:15:07.637Z,20.42
2023-05-12T16:17:33.977Z,20.14
2023-05-12T16:20:02.008Z,19.78
2023-05-12T16:22:28.429Z,19.77
2023-05-12T16:24:56.385Z,19.89
2023-05-12T16:27:22.844Z,19.89
2023-05-12T16:29:50.399Z,19.86
2023-05-12T16:32:17.294Z,19.85
2023-05-12T16:34:43.865Z,19.66
2023-05-12T16:37:10.180Z,19.48
2023-05-12T16:39:36.711Z,19.45
2023-05-12T16:42:03.405Z,19.35
2023-05-12T16:44:29.809Z,19.21
2023-05-12T16:46:56.104Z,19.04
2023-05-12T16:49:22.952Z,18.82
2023-05-12T16:51:50.073Z,18.67
2023-05-12T16:54:17.938Z,18.59
2023-05-12T16:56:44.298Z,18.46
2023-05-12T16:59:10.940Z,18.39
2023-05-12T17:01:39.308Z,18.27
2023-05-12T17:04:06.817Z,18.21
2023-05-12T17:06:33.164Z,18.20
2023-05-12T17:08:59.513Z,18.15
2023-05-12T17:11:25.877Z,18.16
2023-05-12T17:13:53.690Z,18.08
2023-05-12T17:16:20.152Z,18.00
2023-05-12T17:21:15.809Z,17.85
2023-05-12T17:23:42.153Z,17.83
2023-05-12T17:26:08.516Z,17.73
2023-05-12T17:28:34.896Z,17.69
2023-05-12T17:31:01.379Z,17.61
2023-05-12T17:33:27.801Z,17.45
2023-05-12T17:38:26.098Z,17.41
2023-05-12T17:40:52.483Z,17.40
2023-05-12T17:43:18.900Z,17.33
2023-05-12T17:45:45.215Z,17.22
2023-05-12T17:48:11.618Z,17.17
2023-05-12T17:50:39.231Z,17.04
2023-05-12T17:53:06.599Z,16.97
2023-05-12T17:55:33.246Z,16.86
2023-05-12T17:57:59.591Z,16.89
2023-05-12T18:00:25.891Z,16.73
2023-05-12T18:02:52.416Z,16.68
2023-05-12T18:05:19.205Z,16.61
2023-05-12T18:07:45.828Z,16.51
2023-05-12T18:10:12.285Z,16.44
2023-05-12T18:12:38.782Z,16.36
2023-05-12T18:15:06.280Z,16.30
2023-05-12T18:17:32.863Z,16.25
2023-05-12T18:19:59.369Z,16.17
2023-05-12T18:22:26.459Z,16.12
2023-05-12T18:24:52.815Z,16.03
2023-05-12T18:27:19.117Z,15.98
2023-05-12T18:29:45.486Z,15.96
2023-05-12T18:32:11.833Z,15.86
2023-05-12T18:34:38.212Z,15.88
2023-05-12T18:37:04.808Z,15.93
2023-05-12T18:39:31.369Z,15.87
2023-05-12T18:41:57.731Z,15.85
2023-05-12T18:44:24.303Z,15.79
2023-05-12T18:46:50.708Z,15.68
2023-05-12T18:49:17.169Z,15.59
2023-05-12T18:51:43.529Z,15.50
2023-05-12T18:54:09.961Z,15.48
2023-05-12T18:56:36.873Z,15.46
2023-05-12T18:59:03.251Z,15.34
2023-05-12T19:01:29.875Z,15.26
2023-05-12T19:03:56.246Z,15.23
2023-05-12T19:06:22.668Z,15.20
2023-05-12T19:08:49.052Z,15.17
2023-05-12T19:11:15.370Z,15.11
2023-05-12T19:13:45.036Z,15.04
2023-05-12T19:16:11.733Z,15.02
2023-05-12T19:18:38.064Z,14.98
2023-05-12T19:21:04.473Z,14.88
2023-05-12T19:23:31.080Z,14.77
2023-05-12T19:25:57.447Z,14.62
2023-05-12T19:28:24.054Z,14.61
2023-05-12T19:30:50.747Z,14.52
2023-05-12T19:33:17.450Z,14.54
2023-05-12T19:35:43.847Z,14.50
2023-05-12T19:38:10.148Z,14.50
2023-05-12T19:40:36.520Z,14.42
2023-05-12T19:43:04.978Z,14.32
2023-05-12T19:45:31.307Z,14.30
2023-05-12T19:47:57.806Z,14.29
2023-05-12T19:50:24.230Z,14.41
2023-05-12T19:52:50.566Z,14.31
2023-05-12T19:55:17.010Z,14.31
2023-05-12T19:57:43.854Z,14.22
2023-05-12T20:00:10.875Z,14.11
2023-05-12T20:02:37.426Z,14.04
2023-05-12T20:05:04.052Z,14.01
2023-05-12T20:07:30.539Z,13.96
2023-05-12T20:09:57.059Z,14.01
2023-05-12T20:12:23.422Z,14.09
2023-05-12T20:14:49.924Z,14.07
2023-05-12T20:17:16.403Z,13.92
2023-05-12T20:19:42.795Z,13.77
2023-05-12T20:22:09.126Z,13.67
2023-05-12T20:24:35.523Z,13.69
2023-05-12T20:27:02.081Z,13.64
2023-05-12T20:29:30.151Z,13.65
2023-05-12T20:31:56.538Z,13.54
2023-05-12T20:34:22.858Z,13.39
2023-05-12T20:36:49.340Z,13.22
2023-05-12T20:39:15.807Z,13.07
2023-05-12T20:41:43.357Z,12.90
2023-05-12T20:44:09.735Z,12.72
2023-05-12T20:46:38.260Z,12.54
2023-05-12T20:49:05.002Z,12.50
2023-05-12T20:51:32.327Z,12.38
2023-05-12T20:53:58.705Z,12.21
2023-05-12T20:56:26.386Z,12.05
2023-05-12T20:58:52.889Z,11.90
2023-05-12T21:01:19.275Z,11.82
2023-05-12T21:03:46.008Z,11.69
2023-05-12T21:06:12.446Z,11.63
2023-05-12T21:08:38.759Z,11.58
2023-05-12T21:11:13.630Z,11.56
2023-05-12T21:13:40.020Z,11.65
2023-05-12T21:16:06.349Z,11.52
2023-05-12T21:18:33.191Z,11.59
2023-05-12T21:20:59.666Z,11.42
2023-05-12T21:23:28.186Z,11.29
2023-05-12T21:25:54.827Z,11.11
2023-05-12T21:28:21.313Z,10.97
2023-05-12T21:30:47.971Z,10.89
2023-05-12T21:33:14.420Z,10.77
2023-05-12T21:35:41.140Z,10.68
2023-05-12T21:38:08.418Z,10.66
2023-05-12T21:40:34.743Z,10.60
2023-05-12T21:43:01.072Z,10.55
2023-05-12T21:45:27.515Z,10.55
2023-05-12T21:47:53.987Z,10.47
2023-05-12T21:50:23.381Z,10.49
2023-05-12T21:52:50.205Z,10.53
2023-05-12T21:55:17.272Z,10.52
2023-05-12T21:57:43.581Z,10.54
2023-05-12T22:00:11.936Z,10.59
2023-05-12T22:02:38.311Z,10.63
2023-05-12T22:05:05.496Z,10.50
2023-05-12T22:07:31.824Z,10.59
2023-05-12T22:09:58.112Z,10.65
2023-05-12T22:12:24.512Z,10.65
2023-05-12T22:14:50.880Z,10.60
2023-05-12T22:17:17.158Z,10.36
2023-05-12T22:19:43.533Z,10.32
2023-05-12T22:22:10.039Z,10.45
2023-05-12T22:24:36.408Z,10.28
2023-05-12T22:27:02.727Z,10.01
2023-05-12T22:29:29.061Z,10.14
2023-05-12T22:31:55.438Z,10.13
2023-05-12T22:34:21.750Z,10.10
2023-05-12T22:36:48.123Z,9.99
2023-05-12T22:39:14.646Z,10.04
2023-05-12T22:41:45.277Z,9.99
2023-05-12T22:44:11.642Z,9.92
2023-05-12T22:46:38.000Z,9.96
2023-05-12T22:49:04.354Z,9.90
2023-05-12T22:51:31.615Z,9.87
2023-05-12T22:53:57.908Z,9.74
2023-05-12T22:56:24.205Z,9.58
2023-05-12T22:58:50.620Z,9.41
2023-05-12T23:01:18.300Z,9.28
2023-05-12T23:03:44.726Z,9.20
2023-05-12T23:06:13.463Z,9.17
2023-05-12T23:08:39.823Z,9.10
2023-05-12T23:11:06.128Z,9.16
2023-05-12T23:13:32.477Z,9.06
2023-05-12T23:15:58.803Z,8.96
2023-05-12T23:18:25.160Z,9.00
2023-05-12T23:20:51.671Z,8.92
2023-05-12T23:23:17.960Z,8.95
2023-05-12T23:25:44.306Z,8.84
2023-05-12T23:28:10.607Z,8.82
2023-05-12T23:30:36.909Z,8.96
2023-05-12T23:33:03.327Z,9.08
2023-05-12T23:35:29.699Z,9.14
2023-05-12T23:37:55.993Z,9.18
2023-05-12T23:40:22.667Z,9.17
2023-05-12T23:42:49.214Z,9.22
2023-05-12T23:45:15.840Z,9.26
2023-05-12T23:47:43.107Z,9.24
2023-05-12T23:50:09.553Z,9.21
2023-05-12T23:52:35.920Z,9.19
2023-05-12T23:55:02.210Z,9.19
2023-05-12T23:57:28.521Z,9.25
2023-05-12T23:59:54.861Z,9.32
